sensor_id;sensor_type;location;lat;lon;timestamp;P1;durP1;ratioP1;P2;durP2;ratioP2
64367;SDS011;50692;53.314;-6.300;2023-07-31T00:01:34;1.75;;;1.08;;
64367;SDS011;50692;53.314;-6.300;2023-07-31T00:04:20;1.92;;;1.00;;
64367;SDS011;50692;53.314;-6.300;2023-07-31T00:07:06;1.35;;;0.82;;
64367;SDS011;50692;53.314;-6.300;2023-07-31T00:09:51;2.70;;;1.05;;
64367;SDS011;50692;53.314;-6.300;2023-07-31T00:12:39;1.88;;;1.30;;
64367;SDS011;50692;53.314;-6.300;2023-07-31T00:15:26;2.10;;;1.02;;
64367;SDS011;50692;53.314;-6.300;2023-07-31T00:18:12;4.00;;;1.40;;
64367;SDS011;50692;53.314;-6.300;2023-07-31T00:20:58;2.47;;;1.30;;
64367;SDS011;50692;53.314;-6.300;2023-07-31T00:23:44;1.67;;;1.02;;
64367;SDS011;50692;53.314;-6.300;2023-07-31T00:26:30;1.40;;;1.00;;
64367;SDS011;50692;53.314;-6.300;2023-07-31T00:29:15;2.20;;;1.02;;
64367;SDS011;50692;53.314;-6.300;2023-07-31T00:32:01;2.25;;;1.15;;
64367;SDS011;50692;53.314;-6.300;2023-07-31T00:34:47;1.67;;;1.00;;
64367;SDS011;50692;53.314;-6.300;2023-07-31T00:37:33;3.03;;;1.30;;
64367;SDS011;50692;53.314;-6.300;2023-07-31T00:40:20;2.63;;;0.95;;
64367;SDS011;50692;53.314;-6.300;2023-07-31T00:43:06;2.92;;;1.20;;
64367;SDS011;50692;53.314;-6.300;2023-07-31T00:45:52;2.67;;;1.40;;
64367;SDS011;50692;53.314;-6.300;2023-07-31T00:48:38;2.65;;;1.02;;
64367;SDS011;50692;53.314;-6.300;2023-07-31T00:51:24;2.58;;;1.30;;
64367;SDS011;50692;53.314;-6.300;2023-07-31T00:54:10;2.97;;;1.30;;
64367;SDS011;50692;53.314;-6.300;2023-07-31T00:56:56;2.10;;;1.00;;
64367;SDS011;50692;53.314;-6.300;2023-07-31T00:59:43;2.00;;;1.10;;
64367;SDS011;50692;53.314;-6.300;2023-07-31T01:02:28;1.88;;;1.10;;
64367;SDS011;50692;53.314;-6.300;2023-07-31T01:05:14;1.20;;;0.90;;
64367;SDS011;50692;53.314;-6.300;2023-07-31T01:11:17;1.33;;;0.80;;
64367;SDS011;50692;53.314;-6.300;2023-07-31T01:14:10;1.05;;;0.65;;
64367;SDS011;50692;53.314;-6.300;2023-07-31T01:16:56;1.83;;;0.85;;
64367;SDS011;50692;53.314;-6.300;2023-07-31T01:19:42;1.67;;;0.98;;
64367;SDS011;50692;53.314;-6.300;2023-07-31T01:29:03;1.45;;;0.70;;
64367;SDS011;50692;53.314;-6.300;2023-07-31T01:31:55;1.45;;;0.73;;
64367;SDS011;50692;53.314;-6.300;2023-07-31T01:34:44;1.55;;;0.85;;
64367;SDS011;50692;53.314;-6.300;2023-07-31T01:37:31;1.38;;;0.70;;
64367;SDS011;50692;53.314;-6.300;2023-07-31T01:40:16;1.30;;;0.70;;
64367;SDS011;50692;53.314;-6.300;2023-07-31T01:43:02;2.17;;;0.77;;
64367;SDS011;50692;53.314;-6.300;2023-07-31T01:45:48;1.02;;;0.70;;
64367;SDS011;50692;53.314;-6.300;2023-07-31T01:48:34;2.35;;;0.95;;
64367;SDS011;50692;53.314;-6.300;2023-07-31T01:51:22;2.22;;;0.95;;
64367;SDS011;50692;53.314;-6.300;2023-07-31T01:54:07;1.75;;;0.88;;
64367;SDS011;50692;53.314;-6.300;2023-07-31T01:56:53;3.05;;;1.17;;
64367;SDS011;50692;53.314;-6.300;2023-07-31T01:59:39;1.25;;;0.90;;
64367;SDS011;50692;53.314;-6.300;2023-07-31T02:02:25;2.13;;;0.90;;
64367;SDS011;50692;53.314;-6.300;2023-07-31T02:05:11;1.17;;;0.90;;
64367;SDS011;50692;53.314;-6.300;2023-07-31T02:07:56;1.20;;;0.60;;
64367;SDS011;50692;53.314;-6.300;2023-07-31T02:10:42;0.85;;;0.52;;
64367;SDS011;50692;53.314;-6.300;2023-07-31T02:13:29;2.03;;;0.85;;
64367;SDS011;50692;53.314;-6.300;2023-07-31T02:16:14;2.00;;;0.82;;
64367;SDS011;50692;53.314;-6.300;2023-07-31T02:19:00;0.88;;;0.60;;
64367;SDS011;50692;53.314;-6.300;2023-07-31T02:21:46;1.08;;;0.73;;
64367;SDS011;50692;53.314;-6.300;2023-07-31T02:24:32;1.38;;;0.82;;
64367;SDS011;50692;53.314;-6.300;2023-07-31T02:27:17;1.58;;;0.75;;
64367;SDS011;50692;53.314;-6.300;2023-07-31T02:30:03;0.90;;;0.68;;
64367;SDS011;50692;53.314;-6.300;2023-07-31T02:32:49;1.83;;;0.88;;
64367;SDS011;50692;53.314;-6.300;2023-07-31T02:35:35;1.48;;;0.77;;
64367;SDS011;50692;53.314;-6.300;2023-07-31T02:38:21;1.77;;;0.90;;
64367;SDS011;50692;53.314;-6.300;2023-07-31T02:41:07;1.73;;;0.55;;
64367;SDS011;50692;53.314;-6.300;2023-07-31T02:43:53;1.33;;;0.68;;
64367;SDS011;50692;53.314;-6.300;2023-07-31T02:46:38;2.00;;;0.60;;
64367;SDS011;50692;53.314;-6.300;2023-07-31T02:49:24;0.98;;;0.50;;
64367;SDS011;50692;53.314;-6.300;2023-07-31T02:52:10;1.80;;;0.60;;
64367;SDS011;50692;53.314;-6.300;2023-07-31T02:54:56;0.90;;;0.60;;
64367;SDS011;50692;53.314;-6.300;2023-07-31T02:57:43;1.13;;;0.57;;
64367;SDS011;50692;53.314;-6.300;2023-07-31T03:00:28;1.17;;;0.57;;
64367;SDS011;50692;53.314;-6.300;2023-07-31T03:03:14;0.50;;;0.30;;
64367;SDS011;50692;53.314;-6.300;2023-07-31T03:06:00;0.70;;;0.43;;
64367;SDS011;50692;53.314;-6.300;2023-07-31T03:08:46;0.75;;;0.50;;
64367;SDS011;50692;53.314;-6.300;2023-07-31T03:11:32;1.23;;;0.50;;
64367;SDS011;50692;53.314;-6.300;2023-07-31T03:14:17;1.17;;;0.82;;
64367;SDS011;50692;53.314;-6.300;2023-07-31T03:17:03;0.68;;;0.43;;
64367;SDS011;50692;53.314;-6.300;2023-07-31T03:19:49;0.30;;;0.30;;
64367;SDS011;50692;53.314;-6.300;2023-07-31T03:22:35;0.80;;;0.50;;
64367;SDS011;50692;53.314;-6.300;2023-07-31T03:25:21;0.85;;;0.45;;
64367;SDS011;50692;53.314;-6.300;2023-07-31T03:28:07;1.40;;;0.68;;
64367;SDS011;50692;53.314;-6.300;2023-07-31T03:30:53;0.57;;;0.50;;
64367;SDS011;50692;53.314;-6.300;2023-07-31T03:33:38;1.50;;;0.80;;
64367;SDS011;50692;53.314;-6.300;2023-07-31T03:36:24;1.38;;;0.60;;
64367;SDS011;50692;53.314;-6.300;2023-07-31T03:39:11;1.17;;;0.60;;
64367;SDS011;50692;53.314;-6.300;2023-07-31T03:41:57;1.13;;;0.43;;
64367;SDS011;50692;53.314;-6.300;2023-07-31T03:44:42;1.70;;;0.80;;
64367;SDS011;50692;53.314;-6.300;2023-07-31T03:47:28;1.77;;;0.50;;
64367;SDS011;50692;53.314;-6.300;2023-07-31T03:50:14;1.10;;;0.70;;
64367;SDS011;50692;53.314;-6.300;2023-07-31T03:53:00;1.00;;;0.63;;
64367;SDS011;50692;53.314;-6.300;2023-07-31T03:55:46;1.38;;;0.50;;
64367;SDS011;50692;53.314;-6.300;2023-07-31T03:58:32;1.27;;;0.75;;
64367;SDS011;50692;53.314;-6.300;2023-07-31T04:01:19;1.25;;;0.50;;
64367;SDS011;50692;53.314;-6.300;2023-07-31T04:04:05;0.73;;;0.47;;
64367;SDS011;50692;53.314;-6.300;2023-07-31T04:06:51;0.73;;;0.55;;
64367;SDS011;50692;53.314;-6.300;2023-07-31T04:09:37;0.70;;;0.50;;
64367;SDS011;50692;53.314;-6.300;2023-07-31T04:12:22;0.88;;;0.50;;
64367;SDS011;50692;53.314;-6.300;2023-07-31T04:15:08;2.03;;;0.70;;
64367;SDS011;50692;53.314;-6.300;2023-07-31T04:17:54;1.85;;;0.50;;
64367;SDS011;50692;53.314;-6.300;2023-07-31T04:20:40;1.52;;;0.70;;
64367;SDS011;50692;53.314;-6.300;2023-07-31T04:23:26;1.20;;;0.40;;
64367;SDS011;50692;53.314;-6.300;2023-07-31T04:26:12;0.73;;;0.50;;
64367;SDS011;50692;53.314;-6.300;2023-07-31T04:28:58;0.95;;;0.55;;
64367;SDS011;50692;53.314;-6.300;2023-07-31T04:31:44;1.45;;;0.60;;
64367;SDS011;50692;53.314;-6.300;2023-07-31T04:34:29;4.10;;;0.88;;
64367;SDS011;50692;53.314;-6.300;2023-07-31T04:37:15;0.55;;;0.50;;
64367;SDS011;50692;53.314;-6.300;2023-07-31T04:40:01;1.88;;;0.90;;
64367;SDS011;50692;53.314;-6.300;2023-07-31T04:42:47;1.00;;;0.65;;
64367;SDS011;50692;53.314;-6.300;2023-07-31T04:45:33;0.95;;;0.50;;
64367;SDS011;50692;53.314;-6.300;2023-07-31T04:48:19;0.70;;;0.52;;
64367;SDS011;50692;53.314;-6.300;2023-07-31T04:51:04;0.82;;;0.50;;
64367;SDS011;50692;53.314;-6.300;2023-07-31T04:53:50;1.55;;;0.73;;
64367;SDS011;50692;53.314;-6.300;2023-07-31T04:56:36;0.65;;;0.47;;
64367;SDS011;50692;53.314;-6.300;2023-07-31T04:59:22;0.40;;;0.22;;
64367;SDS011;50692;53.314;-6.300;2023-07-31T05:02:08;0.95;;;0.40;;
64367;SDS011;50692;53.314;-6.300;2023-07-31T05:04:54;0.50;;;0.40;;
64367;SDS011;50692;53.314;-6.300;2023-07-31T05:07:40;0.30;;;0.30;;
64367;SDS011;50692;53.314;-6.300;2023-07-31T05:10:26;0.50;;;0.50;;
64367;SDS011;50692;53.314;-6.300;2023-07-31T05:13:11;0.77;;;0.40;;
64367;SDS011;50692;53.314;-6.300;2023-07-31T05:15:57;1.75;;;0.50;;
64367;SDS011;50692;53.314;-6.300;2023-07-31T05:18:43;1.23;;;0.70;;
64367;SDS011;50692;53.314;-6.300;2023-07-31T05:21:29;1.42;;;0.90;;
64367;SDS011;50692;53.314;-6.300;2023-07-31T05:24:14;0.52;;;0.52;;
64367;SDS011;50692;53.314;-6.300;2023-07-31T05:27:00;0.80;;;0.70;;
64367;SDS011;50692;53.314;-6.300;2023-07-31T05:29:46;2.42;;;1.02;;
64367;SDS011;50692;53.314;-6.300;2023-07-31T05:32:33;2.25;;;0.90;;
64367;SDS011;50692;53.314;-6.300;2023-07-31T05:35:18;1.65;;;1.15;;
64367;SDS011;50692;53.314;-6.300;2023-07-31T05:38:04;1.58;;;1.00;;
64367;SDS011;50692;53.314;-6.300;2023-07-31T05:40:50;2.22;;;1.10;;
64367;SDS011;50692;53.314;-6.300;2023-07-31T05:43:36;3.60;;;1.15;;
64367;SDS011;50692;53.314;-6.300;2023-07-31T05:46:21;2.78;;;1.10;;
64367;SDS011;50692;53.314;-6.300;2023-07-31T05:49:07;3.72;;;1.40;;
64367;SDS011;50692;53.314;-6.300;2023-07-31T05:51:53;3.22;;;1.42;;
64367;SDS011;50692;53.314;-6.300;2023-07-31T05:54:39;2.28;;;1.38;;
64367;SDS011;50692;53.314;-6.300;2023-07-31T05:57:25;3.22;;;1.33;;
64367;SDS011;50692;53.314;-6.300;2023-07-31T06:00:11;2.33;;;1.35;;
64367;SDS011;50692;53.314;-6.300;2023-07-31T06:02:57;3.35;;;1.70;;
64367;SDS011;50692;53.314;-6.300;2023-07-31T06:05:43;2.65;;;1.63;;
64367;SDS011;50692;53.314;-6.300;2023-07-31T06:08:29;2.80;;;1.42;;
64367;SDS011;50692;53.314;-6.300;2023-07-31T06:11:14;2.83;;;1.40;;
64367;SDS011;50692;53.314;-6.300;2023-07-31T06:14:00;3.33;;;1.80;;
64367;SDS011;50692;53.314;-6.300;2023-07-31T06:16:46;3.67;;;1.70;;
64367;SDS011;50692;53.314;-6.300;2023-07-31T06:19:32;7.13;;;2.03;;
64367;SDS011;50692;53.314;-6.300;2023-07-31T06:22:18;4.10;;;1.88;;
64367;SDS011;50692;53.314;-6.300;2023-07-31T06:25:03;5.80;;;2.13;;
64367;SDS011;50692;53.314;-6.300;2023-07-31T06:27:50;3.55;;;1.67;;
64367;SDS011;50692;53.314;-6.300;2023-07-31T06:30:35;6.38;;;2.00;;
64367;SDS011;50692;53.314;-6.300;2023-07-31T06:33:21;4.60;;;2.40;;
64367;SDS011;50692;53.314;-6.300;2023-07-31T06:36:07;4.45;;;1.90;;
64367;SDS011;50692;53.314;-6.300;2023-07-31T06:38:53;3.70;;;1.95;;
64367;SDS011;50692;53.314;-6.300;2023-07-31T06:41:39;5.95;;;2.15;;
64367;SDS011;50692;53.314;-6.300;2023-07-31T06:44:25;4.82;;;2.22;;
64367;SDS011;50692;53.314;-6.300;2023-07-31T06:47:11;4.03;;;1.67;;
64367;SDS011;50692;53.314;-6.300;2023-07-31T06:49:57;5.15;;;2.25;;
64367;SDS011;50692;53.314;-6.300;2023-07-31T06:52:43;5.88;;;1.70;;
64367;SDS011;50692;53.314;-6.300;2023-07-31T06:55:28;4.00;;;1.90;;
64367;SDS011;50692;53.314;-6.300;2023-07-31T06:58:14;6.13;;;2.08;;
64367;SDS011;50692;53.314;-6.300;2023-07-31T07:01:00;3.75;;;1.90;;
64367;SDS011;50692;53.314;-6.300;2023-07-31T07:03:46;5.30;;;1.85;;
64367;SDS011;50692;53.314;-6.300;2023-07-31T07:06:32;3.55;;;1.98;;
64367;SDS011;50692;53.314;-6.300;2023-07-31T07:09:18;3.97;;;1.67;;
64367;SDS011;50692;53.314;-6.300;2023-07-31T07:12:05;4.55;;;1.80;;
64367;SDS011;50692;53.314;-6.300;2023-07-31T07:14:51;3.42;;;1.70;;
64367;SDS011;50692;53.314;-6.300;2023-07-31T07:17:38;6.43;;;2.15;;
64367;SDS011;50692;53.314;-6.300;2023-07-31T07:20:24;3.13;;;1.83;;
64367;SDS011;50692;53.314;-6.300;2023-07-31T07:23:09;5.40;;;2.20;;
64367;SDS011;50692;53.314;-6.300;2023-07-31T07:25:55;3.20;;;1.52;;
64367;SDS011;50692;53.314;-6.300;2023-07-31T07:28:41;5.80;;;2.28;;
64367;SDS011;50692;53.314;-6.300;2023-07-31T07:31:27;4.45;;;2.25;;
64367;SDS011;50692;53.314;-6.300;2023-07-31T07:34:14;4.30;;;1.92;;
64367;SDS011;50692;53.314;-6.300;2023-07-31T07:36:59;4.93;;;2.00;;
64367;SDS011;50692;53.314;-6.300;2023-07-31T07:39:45;5.68;;;2.30;;
64367;SDS011;50692;53.314;-6.300;2023-07-31T07:42:31;4.43;;;1.85;;
64367;SDS011;50692;53.314;-6.300;2023-07-31T07:45:17;6.47;;;2.08;;
64367;SDS011;50692;53.314;-6.300;2023-07-31T07:48:03;3.80;;;1.90;;
64367;SDS011;50692;53.314;-6.300;2023-07-31T07:50:49;3.47;;;1.58;;
64367;SDS011;50692;53.314;-6.300;2023-07-31T07:53:34;2.90;;;1.45;;
64367;SDS011;50692;53.314;-6.300;2023-07-31T07:56:20;3.08;;;1.45;;
64367;SDS011;50692;53.314;-6.300;2023-07-31T07:59:06;3.30;;;1.42;;
64367;SDS011;50692;53.314;-6.300;2023-07-31T08:01:52;3.50;;;1.63;;
64367;SDS011;50692;53.314;-6.300;2023-07-31T08:04:37;4.35;;;1.40;;
64367;SDS011;50692;53.314;-6.300;2023-07-31T08:07:24;5.03;;;1.60;;
64367;SDS011;50692;53.314;-6.300;2023-07-31T08:10:09;5.93;;;1.58;;
64367;SDS011;50692;53.314;-6.300;2023-07-31T08:12:55;3.70;;;1.40;;
64367;SDS011;50692;53.314;-6.300;2023-07-31T08:15:41;4.15;;;1.60;;
64367;SDS011;50692;53.314;-6.300;2023-07-31T08:18:28;3.80;;;1.77;;
64367;SDS011;50692;53.314;-6.300;2023-07-31T08:21:13;2.20;;;1.08;;
64367;SDS011;50692;53.314;-6.300;2023-07-31T08:24:00;2.97;;;1.35;;
64367;SDS011;50692;53.314;-6.300;2023-07-31T08:26:46;3.10;;;1.50;;
64367;SDS011;50692;53.314;-6.300;2023-07-31T08:29:32;5.90;;;1.50;;
64367;SDS011;50692;53.314;-6.300;2023-07-31T08:32:18;5.47;;;1.90;;
64367;SDS011;50692;53.314;-6.300;2023-07-31T08:35:04;5.75;;;2.05;;
64367;SDS011;50692;53.314;-6.300;2023-07-31T08:37:50;4.55;;;1.77;;
64367;SDS011;50692;53.314;-6.300;2023-07-31T08:40:36;4.60;;;2.40;;
64367;SDS011;50692;53.314;-6.300;2023-07-31T08:43:26;4.88;;;1.98;;
64367;SDS011;50692;53.314;-6.300;2023-07-31T08:46:12;4.35;;;2.00;;
64367;SDS011;50692;53.314;-6.300;2023-07-31T08:49:04;5.88;;;2.22;;
64367;SDS011;50692;53.314;-6.300;2023-07-31T08:51:51;4.50;;;2.25;;
64367;SDS011;50692;53.314;-6.300;2023-07-31T08:54:37;5.95;;;2.15;;
64367;SDS011;50692;53.314;-6.300;2023-07-31T08:57:23;6.88;;;2.10;;
64367;SDS011;50692;53.314;-6.300;2023-07-31T09:00:10;5.43;;;2.28;;
64367;SDS011;50692;53.314;-6.300;2023-07-31T09:03:00;7.03;;;2.42;;
64367;SDS011;50692;53.314;-6.300;2023-07-31T09:05:48;4.47;;;1.63;;
64367;SDS011;50692;53.314;-6.300;2023-07-31T09:08:35;9.02;;;1.92;;
64367;SDS011;50692;53.314;-6.300;2023-07-31T09:11:26;5.95;;;2.00;;
64367;SDS011;50692;53.314;-6.300;2023-07-31T09:14:13;6.97;;;1.85;;
64367;SDS011;50692;53.314;-6.300;2023-07-31T09:17:00;8.85;;;3.15;;
64367;SDS011;50692;53.314;-6.300;2023-07-31T09:19:47;8.98;;;2.90;;
64367;SDS011;50692;53.314;-6.300;2023-07-31T09:22:34;8.38;;;2.42;;
64367;SDS011;50692;53.314;-6.300;2023-07-31T09:25:26;5.28;;;1.92;;
64367;SDS011;50692;53.314;-6.300;2023-07-31T09:28:11;5.68;;;2.20;;
64367;SDS011;50692;53.314;-6.300;2023-07-31T09:30:57;7.22;;;2.75;;
64367;SDS011;50692;53.314;-6.300;2023-07-31T09:33:55;7.30;;;2.35;;
64367;SDS011;50692;53.314;-6.300;2023-07-31T09:36:42;5.85;;;1.77;;
64367;SDS011;50692;53.314;-6.300;2023-07-31T09:39:45;7.15;;;1.95;;
64367;SDS011;50692;53.314;-6.300;2023-07-31T09:42:32;4.63;;;1.67;;
64367;SDS011;50692;53.314;-6.300;2023-07-31T09:45:19;6.45;;;1.98;;
64367;SDS011;50692;53.314;-6.300;2023-07-31T09:48:09;5.18;;;1.65;;
64367;SDS011;50692;53.314;-6.300;2023-07-31T09:50:56;4.53;;;1.58;;
64367;SDS011;50692;53.314;-6.300;2023-07-31T09:53:50;6.18;;;2.30;;
64367;SDS011;50692;53.314;-6.300;2023-07-31T09:56:36;5.65;;;2.10;;
64367;SDS011;50692;53.314;-6.300;2023-07-31T09:59:23;5.43;;;2.03;;
64367;SDS011;50692;53.314;-6.300;2023-07-31T10:02:10;4.53;;;2.15;;
64367;SDS011;50692;53.314;-6.300;2023-07-31T10:05:01;8.45;;;2.63;;
64367;SDS011;50692;53.314;-6.300;2023-07-31T10:07:51;5.35;;;2.65;;
64367;SDS011;50692;53.314;-6.300;2023-07-31T10:10:43;5.57;;;2.10;;
64367;SDS011;50692;53.314;-6.300;2023-07-31T10:13:30;3.40;;;1.50;;
64367;SDS011;50692;53.314;-6.300;2023-07-31T10:16:17;5.40;;;2.22;;
64367;SDS011;50692;53.314;-6.300;2023-07-31T10:19:05;3.60;;;1.70;;
64367;SDS011;50692;53.314;-6.300;2023-07-31T10:21:51;6.72;;;2.22;;
64367;SDS011;50692;53.314;-6.300;2023-07-31T10:24:37;3.78;;;1.60;;
64367;SDS011;50692;53.314;-6.300;2023-07-31T10:27:24;4.70;;;2.10;;
64367;SDS011;50692;53.314;-6.300;2023-07-31T10:30:16;4.95;;;2.33;;
64367;SDS011;50692;53.314;-6.300;2023-07-31T10:33:04;5.15;;;2.00;;
64367;SDS011;50692;53.314;-6.300;2023-07-31T10:35:54;3.30;;;1.77;;
64367;SDS011;50692;53.314;-6.300;2023-07-31T10:39:03;4.38;;;1.77;;
64367;SDS011;50692;53.314;-6.300;2023-07-31T10:41:49;4.15;;;1.80;;
64367;SDS011;50692;53.314;-6.300;2023-07-31T10:44:35;5.35;;;2.10;;
64367;SDS011;50692;53.314;-6.300;2023-07-31T10:47:21;6.40;;;2.05;;
64367;SDS011;50692;53.314;-6.300;2023-07-31T10:50:11;5.05;;;2.47;;
64367;SDS011;50692;53.314;-6.300;2023-07-31T10:52:57;4.57;;;1.83;;
64367;SDS011;50692;53.314;-6.300;2023-07-31T10:55:50;4.70;;;2.55;;
64367;SDS011;50692;53.314;-6.300;2023-07-31T10:58:40;4.57;;;1.73;;
64367;SDS011;50692;53.314;-6.300;2023-07-31T11:04:35;2.80;;;1.75;;
64367;SDS011;50692;53.314;-6.300;2023-07-31T11:07:21;6.10;;;2.00;;
64367;SDS011;50692;53.314;-6.300;2023-07-31T11:10:07;3.63;;;1.80;;
64367;SDS011;50692;53.314;-6.300;2023-07-31T11:12:53;3.70;;;1.35;;
64367;SDS011;50692;53.314;-6.300;2023-07-31T11:15:39;4.20;;;1.65;;
64367;SDS011;50692;53.314;-6.300;2023-07-31T11:18:26;5.57;;;2.13;;
64367;SDS011;50692;53.314;-6.300;2023-07-31T11:21:16;5.07;;;1.90;;
64367;SDS011;50692;53.314;-6.300;2023-07-31T11:24:08;5.90;;;2.22;;
64367;SDS011;50692;53.314;-6.300;2023-07-31T11:26:54;6.05;;;1.65;;
64367;SDS011;50692;53.314;-6.300;2023-07-31T11:29:40;5.28;;;1.85;;
64367;SDS011;50692;53.314;-6.300;2023-07-31T11:32:26;4.28;;;1.70;;
64367;SDS011;50692;53.314;-6.300;2023-07-31T11:35:12;4.25;;;1.85;;
64367;SDS011;50692;53.314;-6.300;2023-07-31T11:37:58;4.50;;;2.17;;
64367;SDS011;50692;53.314;-6.300;2023-07-31T11:40:44;4.40;;;2.00;;
64367;SDS011;50692;53.314;-6.300;2023-07-31T11:43:31;4.97;;;1.80;;
64367;SDS011;50692;53.314;-6.300;2023-07-31T11:46:17;4.75;;;1.85;;
64367;SDS011;50692;53.314;-6.300;2023-07-31T11:49:04;4.13;;;1.55;;
64367;SDS011;50692;53.314;-6.300;2023-07-31T11:51:51;4.57;;;1.70;;
64367;SDS011;50692;53.314;-6.300;2023-07-31T11:54:37;4.80;;;1.90;;
64367;SDS011;50692;53.314;-6.300;2023-07-31T11:57:23;2.72;;;1.50;;
64367;SDS011;50692;53.314;-6.300;2023-07-31T12:00:09;6.13;;;1.85;;
64367;SDS011;50692;53.314;-6.300;2023-07-31T12:02:58;4.40;;;1.25;;
64367;SDS011;50692;53.314;-6.300;2023-07-31T12:05:44;3.90;;;1.55;;
64367;SDS011;50692;53.314;-6.300;2023-07-31T12:08:32;6.25;;;1.80;;
64367;SDS011;50692;53.314;-6.300;2023-07-31T12:11:18;3.92;;;1.52;;
64367;SDS011;50692;53.314;-6.300;2023-07-31T12:14:04;4.03;;;1.88;;
64367;SDS011;50692;53.314;-6.300;2023-07-31T12:16:56;3.42;;;1.27;;
64367;SDS011;50692;53.314;-6.300;2023-07-31T12:19:44;3.80;;;1.35;;
64367;SDS011;50692;53.314;-6.300;2023-07-31T12:22:29;3.17;;;1.25;;
64367;SDS011;50692;53.314;-6.300;2023-07-31T12:25:16;1.88;;;0.90;;
64367;SDS011;50692;53.314;-6.300;2023-07-31T12:28:05;1.73;;;1.30;;
64367;SDS011;50692;53.314;-6.300;2023-07-31T12:30:57;1.98;;;1.15;;
64367;SDS011;50692;53.314;-6.300;2023-07-31T12:33:47;3.85;;;1.42;;
64367;SDS011;50692;53.314;-6.300;2023-07-31T12:36:35;3.97;;;1.30;;
64367;SDS011;50692;53.314;-6.300;2023-07-31T12:39:21;2.15;;;1.65;;
64367;SDS011;50692;53.314;-6.300;2023-07-31T12:42:07;3.85;;;1.50;;
64367;SDS011;50692;53.314;-6.300;2023-07-31T12:44:53;2.40;;;1.23;;
64367;SDS011;50692;53.314;-6.300;2023-07-31T12:47:39;3.08;;;1.40;;
64367;SDS011;50692;53.314;-6.300;2023-07-31T12:50:24;4.53;;;1.85;;
64367;SDS011;50692;53.314;-6.300;2023-07-31T12:53:11;1.98;;;1.40;;
64367;SDS011;50692;53.314;-6.300;2023-07-31T12:55:57;3.28;;;1.65;;
64367;SDS011;50692;53.314;-6.300;2023-07-31T12:58:42;4.07;;;1.45;;
64367;SDS011;50692;53.314;-6.300;2023-07-31T13:01:28;3.63;;;1.83;;
64367;SDS011;50692;53.314;-6.300;2023-07-31T13:04:14;3.33;;;1.70;;
64367;SDS011;50692;53.314;-6.300;2023-07-31T13:07:00;4.30;;;1.77;;
64367;SDS011;50692;53.314;-6.300;2023-07-31T13:09:46;4.45;;;1.80;;
64367;SDS011;50692;53.314;-6.300;2023-07-31T13:12:32;4.85;;;1.60;;
64367;SDS011;50692;53.314;-6.300;2023-07-31T13:15:18;3.42;;;1.40;;
64367;SDS011;50692;53.314;-6.300;2023-07-31T13:18:04;3.38;;;1.48;;
64367;SDS011;50692;53.314;-6.300;2023-07-31T13:20:49;4.45;;;1.50;;
64367;SDS011;50692;53.314;-6.300;2023-07-31T13:23:35;3.17;;;1.48;;
64367;SDS011;50692;53.314;-6.300;2023-07-31T13:26:21;2.97;;;1.48;;
64367;SDS011;50692;53.314;-6.300;2023-07-31T13:29:07;3.65;;;1.63;;
64367;SDS011;50692;53.314;-6.300;2023-07-31T13:31:53;3.78;;;1.65;;
64367;SDS011;50692;53.314;-6.300;2023-07-31T13:34:38;4.20;;;1.70;;
64367;SDS011;50692;53.314;-6.300;2023-07-31T13:37:24;4.07;;;1.80;;
64367;SDS011;50692;53.314;-6.300;2023-07-31T13:40:10;3.05;;;1.27;;
64367;SDS011;50692;53.314;-6.300;2023-07-31T13:42:56;4.85;;;1.83;;
64367;SDS011;50692;53.314;-6.300;2023-07-31T13:45:42;5.05;;;1.95;;
64367;SDS011;50692;53.314;-6.300;2023-07-31T13:48:28;5.25;;;1.65;;
64367;SDS011;50692;53.314;-6.300;2023-07-31T13:51:14;4.85;;;1.77;;
64367;SDS011;50692;53.314;-6.300;2023-07-31T13:54:00;4.07;;;1.90;;
64367;SDS011;50692;53.314;-6.300;2023-07-31T13:56:47;5.25;;;1.90;;
64367;SDS011;50692;53.314;-6.300;2023-07-31T13:59:32;5.88;;;2.00;;
64367;SDS011;50692;53.314;-6.300;2023-07-31T14:02:18;5.03;;;2.08;;
64367;SDS011;50692;53.314;-6.300;2023-07-31T14:05:04;3.45;;;1.60;;
64367;SDS011;50692;53.314;-6.300;2023-07-31T14:07:50;2.70;;;1.45;;
64367;SDS011;50692;53.314;-6.300;2023-07-31T14:10:36;4.57;;;1.45;;
64367;SDS011;50692;53.314;-6.300;2023-07-31T14:13:22;3.97;;;1.85;;
64367;SDS011;50692;53.314;-6.300;2023-07-31T14:16:07;3.20;;;1.33;;
64367;SDS011;50692;53.314;-6.300;2023-07-31T14:18:54;3.58;;;1.45;;
64367;SDS011;50692;53.314;-6.300;2023-07-31T14:21:40;2.05;;;1.23;;
64367;SDS011;50692;53.314;-6.300;2023-07-31T14:24:26;2.42;;;1.23;;
64367;SDS011;50692;53.314;-6.300;2023-07-31T14:27:12;4.15;;;1.30;;
64367;SDS011;50692;53.314;-6.300;2023-07-31T14:29:57;4.22;;;1.30;;
64367;SDS011;50692;53.314;-6.300;2023-07-31T14:32:43;3.92;;;1.40;;
64367;SDS011;50692;53.314;-6.300;2023-07-31T14:35:29;2.65;;;1.38;;
64367;SDS011;50692;53.314;-6.300;2023-07-31T14:38:15;2.28;;;1.20;;
64367;SDS011;50692;53.314;-6.300;2023-07-31T14:41:01;2.03;;;1.10;;
64367;SDS011;50692;53.314;-6.300;2023-07-31T14:43:47;3.08;;;1.20;;
64367;SDS011;50692;53.314;-6.300;2023-07-31T14:46:33;3.40;;;1.35;;
64367;SDS011;50692;53.314;-6.300;2023-07-31T14:49:18;3.90;;;1.52;;
64367;SDS011;50692;53.314;-6.300;2023-07-31T14:52:04;2.80;;;1.42;;
64367;SDS011;50692;53.314;-6.300;2023-07-31T14:54:50;3.67;;;1.60;;
64367;SDS011;50692;53.314;-6.300;2023-07-31T14:57:36;3.38;;;1.70;;
64367;SDS011;50692;53.314;-6.300;2023-07-31T15:00:22;5.95;;;2.10;;
64367;SDS011;50692;53.314;-6.300;2023-07-31T15:03:09;3.20;;;1.60;;
64367;SDS011;50692;53.314;-6.300;2023-07-31T15:05:55;2.53;;;1.48;;
64367;SDS011;50692;53.314;-6.300;2023-07-31T15:08:41;3.58;;;1.60;;
64367;SDS011;50692;53.314;-6.300;2023-07-31T15:11:27;4.20;;;1.23;;
64367;SDS011;50692;53.314;-6.300;2023-07-31T15:14:13;3.33;;;1.70;;
64367;SDS011;50692;53.314;-6.300;2023-07-31T15:16:59;3.85;;;1.80;;
64367;SDS011;50692;53.314;-6.300;2023-07-31T15:19:45;7.80;;;2.53;;
64367;SDS011;50692;53.314;-6.300;2023-07-31T15:22:30;7.07;;;1.77;;
64367;SDS011;50692;53.314;-6.300;2023-07-31T15:25:16;5.53;;;1.75;;
64367;SDS011;50692;53.314;-6.300;2023-07-31T15:28:02;5.45;;;1.70;;
64367;SDS011;50692;53.314;-6.300;2023-07-31T15:30:48;5.78;;;1.88;;
64367;SDS011;50692;53.314;-6.300;2023-07-31T15:33:34;5.00;;;1.60;;
64367;SDS011;50692;53.314;-6.300;2023-07-31T15:36:19;5.57;;;1.90;;
64367;SDS011;50692;53.314;-6.300;2023-07-31T15:39:05;4.60;;;1.70;;
64367;SDS011;50692;53.314;-6.300;2023-07-31T15:41:53;4.93;;;1.63;;
64367;SDS011;50692;53.314;-6.300;2023-07-31T15:44:39;5.05;;;1.70;;
64367;SDS011;50692;53.314;-6.300;2023-07-31T15:47:25;3.55;;;1.50;;
64367;SDS011;50692;53.314;-6.300;2023-07-31T15:50:11;4.43;;;1.70;;
64367;SDS011;50692;53.314;-6.300;2023-07-31T15:52:57;4.85;;;1.80;;
64367;SDS011;50692;53.314;-6.300;2023-07-31T15:55:42;3.10;;;1.35;;
64367;SDS011;50692;53.314;-6.300;2023-07-31T15:58:28;3.90;;;1.27;;
64367;SDS011;50692;53.314;-6.300;2023-07-31T16:01:14;3.78;;;1.20;;
64367;SDS011;50692;53.314;-6.300;2023-07-31T16:04:00;2.30;;;1.20;;
64367;SDS011;50692;53.314;-6.300;2023-07-31T16:06:46;4.35;;;1.70;;
64367;SDS011;50692;53.314;-6.300;2023-07-31T16:09:31;2.40;;;1.52;;
64367;SDS011;50692;53.314;-6.300;2023-07-31T16:12:17;3.65;;;1.80;;
64367;SDS011;50692;53.314;-6.300;2023-07-31T16:15:03;4.35;;;1.70;;
64367;SDS011;50692;53.314;-6.300;2023-07-31T16:17:49;2.17;;;1.38;;
64367;SDS011;50692;53.314;-6.300;2023-07-31T16:20:35;4.80;;;1.88;;
64367;SDS011;50692;53.314;-6.300;2023-07-31T16:23:21;3.88;;;1.55;;
64367;SDS011;50692;53.314;-6.300;2023-07-31T16:26:07;5.32;;;1.80;;
64367;SDS011;50692;53.314;-6.300;2023-07-31T16:28:52;3.53;;;1.60;;
64367;SDS011;50692;53.314;-6.300;2023-07-31T16:31:38;3.78;;;1.38;;
64367;SDS011;50692;53.314;-6.300;2023-07-31T16:34:24;3.60;;;1.77;;
64367;SDS011;50692;53.314;-6.300;2023-07-31T16:37:11;3.38;;;1.67;;
64367;SDS011;50692;53.314;-6.300;2023-07-31T16:39:57;2.88;;;1.75;;